sensor_id;sensor_type;location;lat;lon;timestamp;P1;durP1;ratioP1;P2;durP2;ratioP2
3769;SDS011;1900;48.890;9.190;2023-06-10T00:01:12;7.80;;;6.10;;
3769;SDS011;1900;48.890;9.190;2023-06-10T00:03:38;6.30;;;5.70;;
3769;SDS011;1900;48.890;9.190;2023-06-10T00:06:04;7.07;;;5.93;;
3769;SDS011;1900;48.890;9.190;2023-06-10T00:08:30;6.83;;;6.10;;
3769;SDS011;1900;48.890;9.190;2023-06-10T00:10:56;7.53;;;6.73;;
3769;SDS011;1900;48.890;9.190;2023-06-10T00:13:22;8.10;;;5.80;;
3769;SDS011;1900;48.890;9.190;2023-06-10T00:15:47;6.73;;;5.43;;
3769;SDS011;1900;48.890;9.190;2023-06-10T00:18:13;7.87;;;5.90;;
3769;SDS011;1900;48.890;9.190;2023-06-10T00:20:39;8.30;;;5.60;;
3769;SDS011;1900;48.890;9.190;2023-06-10T00:23:05;9.13;;;6.07;;
3769;SDS011;1900;48.890;9.190;2023-06-10T00:25:33;7.93;;;5.80;;
3769;SDS011;1900;48.890;9.190;2023-06-10T00:27:59;6.47;;;5.53;;
3769;SDS011;1900;48.890;9.190;2023-06-10T00:30:27;7.50;;;5.50;;
3769;SDS011;1900;48.890;9.190;2023-06-10T00:32:53;7.23;;;5.87;;
3769;SDS011;1900;48.890;9.190;2023-06-10T00:35:18;10.17;;;5.97;;
3769;SDS011;1900;48.890;9.190;2023-06-10T00:37:44;7.17;;;5.47;;
3769;SDS011;1900;48.890;9.190;2023-06-10T00:40:10;5.80;;;5.30;;
3769;SDS011;1900;48.890;9.190;2023-06-10T00:42:36;6.37;;;4.80;;
3769;SDS011;1900;48.890;9.190;2023-06-10T00:45:02;7.60;;;5.40;;
3769;SDS011;1900;48.890;9.190;2023-06-10T00:47:28;6.17;;;5.50;;
3769;SDS011;1900;48.890;9.190;2023-06-10T00:49:55;7.00;;;5.13;;
3769;SDS011;1900;48.890;9.190;2023-06-10T00:52:22;5.33;;;4.80;;
3769;SDS011;1900;48.890;9.190;2023-06-10T00:54:53;6.40;;;5.20;;
3769;SDS011;1900;48.890;9.190;2023-06-10T00:57:19;7.03;;;4.60;;
3769;SDS011;1900;48.890;9.190;2023-06-10T00:59:47;7.00;;;5.10;;
3769;SDS011;1900;48.890;9.190;2023-06-10T01:02:14;7.23;;;5.80;;
3769;SDS011;1900;48.890;9.190;2023-06-10T01:04:40;6.07;;;5.47;;
3769;SDS011;1900;48.890;9.190;2023-06-10T01:12:34;5.73;;;4.80;;
3769;SDS011;1900;48.890;9.190;2023-06-10T01:15:16;6.20;;;4.83;;
3769;SDS011;1900;48.890;9.190;2023-06-10T01:20:29;7.13;;;5.60;;
3769;SDS011;1900;48.890;9.190;2023-06-10T01:23:00;6.53;;;5.67;;
3769;SDS011;1900;48.890;9.190;2023-06-10T01:25:28;7.37;;;6.03;;
3769;SDS011;1900;48.890;9.190;2023-06-10T01:27:57;11.60;;;5.73;;
3769;SDS011;1900;48.890;9.190;2023-06-10T01:33:17;7.50;;;6.23;;
3769;SDS011;1900;48.890;9.190;2023-06-10T01:35:47;8.00;;;6.30;;
3769;SDS011;1900;48.890;9.190;2023-06-10T01:38:15;5.63;;;5.13;;
3769;SDS011;1900;48.890;9.190;2023-06-10T01:40:45;6.83;;;5.40;;
3769;SDS011;1900;48.890;9.190;2023-06-10T01:43:11;6.13;;;5.53;;
3769;SDS011;1900;48.890;9.190;2023-06-10T01:45:38;7.20;;;5.60;;
3769;SDS011;1900;48.890;9.190;2023-06-10T01:48:04;7.10;;;5.97;;
3769;SDS011;1900;48.890;9.190;2023-06-10T01:50:30;6.43;;;5.63;;
3769;SDS011;1900;48.890;9.190;2023-06-10T01:52:57;8.40;;;6.63;;
3769;SDS011;1900;48.890;9.190;2023-06-10T01:55:23;5.90;;;5.30;;
3769;SDS011;1900;48.890;9.190;2023-06-10T01:57:49;6.67;;;5.80;;
3769;SDS011;1900;48.890;9.190;2023-06-10T02:00:15;5.90;;;4.90;;
3769;SDS011;1900;48.890;9.190;2023-06-10T02:02:41;5.80;;;4.67;;
3769;SDS011;1900;48.890;9.190;2023-06-10T02:05:06;7.37;;;5.17;;
3769;SDS011;1900;48.890;9.190;2023-06-10T02:07:32;5.70;;;4.73;;
3769;SDS011;1900;48.890;9.190;2023-06-10T02:09:58;7.10;;;4.70;;
3769;SDS011;1900;48.890;9.190;2023-06-10T02:12:23;7.23;;;5.50;;
3769;SDS011;1900;48.890;9.190;2023-06-10T02:14:49;7.23;;;5.30;;
3769;SDS011;1900;48.890;9.190;2023-06-10T02:17:16;7.70;;;4.50;;
3769;SDS011;1900;48.890;9.190;2023-06-10T02:19:42;5.50;;;5.00;;
3769;SDS011;1900;48.890;9.190;2023-06-10T02:22:08;7.63;;;5.13;;
3769;SDS011;1900;48.890;9.190;2023-06-10T02:24:37;6.87;;;5.23;;
3769;SDS011;1900;48.890;9.190;2023-06-10T02:27:04;11.50;;;5.17;;
3769;SDS011;1900;48.890;9.190;2023-06-10T02:29:33;5.67;;;4.93;;
3769;SDS011;1900;48.890;9.190;2023-06-10T02:32:01;8.07;;;5.10;;
3769;SDS011;1900;48.890;9.190;2023-06-10T02:34:28;5.63;;;5.00;;
3769;SDS011;1900;48.890;9.190;2023-06-10T02:36:54;6.23;;;5.53;;
3769;SDS011;1900;48.890;9.190;2023-06-10T02:39:21;7.23;;;5.03;;
3769;SDS011;1900;48.890;9.190;2023-06-10T02:41:48;6.17;;;4.90;;
3769;SDS011;1900;48.890;9.190;2023-06-10T02:44:14;6.83;;;5.87;;
3769;SDS011;1900;48.890;9.190;2023-06-10T02:46:40;5.67;;;4.93;;
3769;SDS011;1900;48.890;9.190;2023-06-10T02:49:06;7.60;;;5.60;;
3769;SDS011;1900;48.890;9.190;2023-06-10T02:51:31;6.80;;;5.13;;
3769;SDS011;1900;48.890;9.190;2023-06-10T02:54:00;6.90;;;5.47;;
3769;SDS011;1900;48.890;9.190;2023-06-10T02:56:26;6.73;;;5.93;;
3769;SDS011;1900;48.890;9.190;2023-06-10T02:58:53;8.30;;;5.43;;
3769;SDS011;1900;48.890;9.190;2023-06-10T03:01:20;7.23;;;5.30;;
3769;SDS011;1900;48.890;9.190;2023-06-10T03:03:54;5.43;;;4.93;;
3769;SDS011;1900;48.890;9.190;2023-06-10T03:06:21;6.63;;;5.90;;
3769;SDS011;1900;48.890;9.190;2023-06-10T03:08:49;6.53;;;5.27;;
3769;SDS011;1900;48.890;9.190;2023-06-10T03:11:17;5.53;;;4.77;;
3769;SDS011;1900;48.890;9.190;2023-06-10T03:13:45;7.13;;;5.77;;
3769;SDS011;1900;48.890;9.190;2023-06-10T03:16:14;5.40;;;4.90;;
3769;SDS011;1900;48.890;9.190;2023-06-10T03:18:40;6.20;;;5.00;;
3769;SDS011;1900;48.890;9.190;2023-06-10T03:21:07;6.30;;;4.97;;
3769;SDS011;1900;48.890;9.190;2023-06-10T03:23:34;8.03;;;5.40;;
3769;SDS011;1900;48.890;9.190;2023-06-10T03:26:00;7.53;;;5.70;;
3769;SDS011;1900;48.890;9.190;2023-06-10T03:28:28;5.80;;;5.00;;
3769;SDS011;1900;48.890;9.190;2023-06-10T03:30:55;5.73;;;5.13;;
3769;SDS011;1900;48.890;9.190;2023-06-10T03:33:23;6.03;;;5.43;;
3769;SDS011;1900;48.890;9.190;2023-06-10T03:35:50;6.90;;;5.17;;
3769;SDS011;1900;48.890;9.190;2023-06-10T03:38:16;7.20;;;5.53;;
3769;SDS011;1900;48.890;9.190;2023-06-10T03:40:42;5.80;;;5.13;;
3769;SDS011;1900;48.890;9.190;2023-06-10T03:43:08;6.23;;;5.07;;
3769;SDS011;1900;48.890;9.190;2023-06-10T03:45:35;7.30;;;5.73;;
3769;SDS011;1900;48.890;9.190;2023-06-10T03:48:01;6.30;;;5.70;;
3769;SDS011;1900;48.890;9.190;2023-06-10T03:50:37;6.77;;;5.40;;
3769;SDS011;1900;48.890;9.190;2023-06-10T03:53:03;5.80;;;5.20;;
3769;SDS011;1900;48.890;9.190;2023-06-10T03:55:28;6.17;;;5.57;;
3769;SDS011;1900;48.890;9.190;2023-06-10T03:57:56;5.60;;;4.80;;
3769;SDS011;1900;48.890;9.190;2023-06-10T04:00:23;7.10;;;5.83;;
3769;SDS011;1900;48.890;9.190;2023-06-10T04:02:48;6.93;;;5.50;;
3769;SDS011;1900;48.890;9.190;2023-06-10T04:05:36;8.10;;;5.43;;
3769;SDS011;1900;48.890;9.190;2023-06-10T04:08:02;7.10;;;5.57;;
3769;SDS011;1900;48.890;9.190;2023-06-10T04:10:28;6.33;;;5.30;;
3769;SDS011;1900;48.890;9.190;2023-06-10T04:12:54;6.53;;;5.30;;
3769;SDS011;1900;48.890;9.190;2023-06-10T04:15:22;6.57;;;5.30;;
3769;SDS011;1900;48.890;9.190;2023-06-10T04:17:47;7.20;;;5.60;;
3769;SDS011;1900;48.890;9.190;2023-06-10T04:20:16;6.53;;;5.80;;
3769;SDS011;1900;48.890;9.190;2023-06-10T04:22:44;6.77;;;5.20;;
3769;SDS011;1900;48.890;9.190;2023-06-10T04:25:10;6.07;;;5.40;;
3769;SDS011;1900;48.890;9.190;2023-06-10T04:27:37;6.90;;;5.60;;
3769;SDS011;1900;48.890;9.190;2023-06-10T04:30:03;6.43;;;5.20;;
3769;SDS011;1900;48.890;9.190;2023-06-10T04:32:30;10.00;;;6.73;;
3769;SDS011;1900;48.890;9.190;2023-06-10T04:34:56;6.87;;;5.97;;
3769;SDS011;1900;48.890;9.190;2023-06-10T04:37:22;5.40;;;4.90;;
3769;SDS011;1900;48.890;9.190;2023-06-10T04:39:49;6.00;;;5.10;;
3769;SDS011;1900;48.890;9.190;2023-06-10T04:42:15;5.07;;;4.57;;
3769;SDS011;1900;48.890;9.190;2023-06-10T04:44:41;7.47;;;5.17;;
3769;SDS011;1900;48.890;9.190;2023-06-10T04:47:06;7.03;;;4.93;;
3769;SDS011;1900;48.890;9.190;2023-06-10T04:49:33;5.73;;;4.97;;
3769;SDS011;1900;48.890;9.190;2023-06-10T04:51:59;6.30;;;4.73;;
3769;SDS011;1900;48.890;9.190;2023-06-10T04:54:25;5.23;;;4.60;;
3769;SDS011;1900;48.890;9.190;2023-06-10T04:56:51;7.90;;;5.17;;
3769;SDS011;1900;48.890;9.190;2023-06-10T04:59:17;6.27;;;4.77;;
3769;SDS011;1900;48.890;9.190;2023-06-10T05:01:42;9.93;;;5.20;;
3769;SDS011;1900;48.890;9.190;2023-06-10T05:04:08;6.70;;;5.00;;
3769;SDS011;1900;48.890;9.190;2023-06-10T05:06:34;6.13;;;4.97;;
3769;SDS011;1900;48.890;9.190;2023-06-10T05:09:01;6.43;;;4.73;;
3769;SDS011;1900;48.890;9.190;2023-06-10T05:11:26;5.60;;;4.90;;
3769;SDS011;1900;48.890;9.190;2023-06-10T05:13:52;6.23;;;5.63;;
3769;SDS011;1900;48.890;9.190;2023-06-10T05:16:18;6.50;;;5.10;;
3769;SDS011;1900;48.890;9.190;2023-06-10T05:18:44;5.67;;;4.70;;
3769;SDS011;1900;48.890;9.190;2023-06-10T05:21:09;7.10;;;4.70;;
3769;SDS011;1900;48.890;9.190;2023-06-10T05:23:35;5.10;;;4.47;;
3769;SDS011;1900;48.890;9.190;2023-06-10T05:26:01;7.10;;;5.90;;
3769;SDS011;1900;48.890;9.190;2023-06-10T05:28:27;12.40;;;4.97;;
3769;SDS011;1900;48.890;9.190;2023-06-10T05:30:53;7.53;;;5.97;;
3769;SDS011;1900;48.890;9.190;2023-06-10T05:33:18;5.57;;;4.73;;
3769;SDS011;1900;48.890;9.190;2023-06-10T05:35:44;8.17;;;5.43;;
3769;SDS011;1900;48.890;9.190;2023-06-10T05:38:10;6.30;;;5.20;;
3769;SDS011;1900;48.890;9.190;2023-06-10T05:40:36;8.03;;;5.07;;
3769;SDS011;1900;48.890;9.190;2023-06-10T05:43:01;5.67;;;5.07;;
3769;SDS011;1900;48.890;9.190;2023-06-10T05:45:27;5.13;;;4.57;;
3769;SDS011;1900;48.890;9.190;2023-06-10T05:47:53;7.33;;;5.20;;
3769;SDS011;1900;48.890;9.190;2023-06-10T05:50:18;6.20;;;5.40;;
3769;SDS011;1900;48.890;9.190;2023-06-10T05:52:44;7.10;;;5.20;;
3769;SDS011;1900;48.890;9.190;2023-06-10T05:55:10;5.53;;;5.03;;
3769;SDS011;1900;48.890;9.190;2023-06-10T05:57:35;6.17;;;5.03;;
3769;SDS011;1900;48.890;9.190;2023-06-10T06:00:01;5.50;;;5.00;;
3769;SDS011;1900;48.890;9.190;2023-06-10T06:02:37;5.60;;;5.10;;
3769;SDS011;1900;48.890;9.190;2023-06-10T06:05:03;5.87;;;5.27;;
3769;SDS011;1900;48.890;9.190;2023-06-10T06:07:29;6.03;;;5.23;;
3769;SDS011;1900;48.890;9.190;2023-06-10T06:09:55;7.40;;;5.70;;
3769;SDS011;1900;48.890;9.190;2023-06-10T06:12:20;5.43;;;4.73;;
3769;SDS011;1900;48.890;9.190;2023-06-10T06:14:46;5.23;;;4.63;;
3769;SDS011;1900;48.890;9.190;2023-06-10T06:17:14;5.97;;;4.50;;
3769;SDS011;1900;48.890;9.190;2023-06-10T06:19:39;5.93;;;4.80;;
3769;SDS011;1900;48.890;9.190;2023-06-10T06:22:05;5.90;;;5.10;;
3769;SDS011;1900;48.890;9.190;2023-06-10T06:24:31;5.83;;;5.17;;
3769;SDS011;1900;48.890;9.190;2023-06-10T06:26:56;5.83;;;5.27;;
3769;SDS011;1900;48.890;9.190;2023-06-10T06:29:22;6.20;;;5.10;;
3769;SDS011;1900;48.890;9.190;2023-06-10T06:31:48;7.23;;;5.57;;
3769;SDS011;1900;48.890;9.190;2023-06-10T06:34:13;14.30;;;4.83;;
3769;SDS011;1900;48.890;9.190;2023-06-10T06:36:39;5.00;;;4.40;;
3769;SDS011;1900;48.890;9.190;2023-06-10T06:39:06;4.93;;;4.43;;
3769;SDS011;1900;48.890;9.190;2023-06-10T06:41:32;12.33;;;4.70;;
3769;SDS011;1900;48.890;9.190;2023-06-10T06:43:58;6.40;;;5.40;;
3769;SDS011;1900;48.890;9.190;2023-06-10T06:46:29;9.40;;;4.83;;
3769;SDS011;1900;48.890;9.190;2023-06-10T06:48:54;5.20;;;4.70;;
3769;SDS011;1900;48.890;9.190;2023-06-10T06:51:20;6.60;;;5.00;;
3769;SDS011;1900;48.890;9.190;2023-06-10T06:53:46;7.10;;;5.43;;
3769;SDS011;1900;48.890;9.190;2023-06-10T06:56:12;6.67;;;5.10;;
3769;SDS011;1900;48.890;9.190;2023-06-10T06:58:37;7.30;;;4.90;;
3769;SDS011;1900;48.890;9.190;2023-06-10T07:01:03;9.63;;;5.70;;
3769;SDS011;1900;48.890;9.190;2023-06-10T07:03:30;6.93;;;5.00;;
3769;SDS011;1900;48.890;9.190;2023-06-10T07:05:56;8.20;;;5.10;;
3769;SDS011;1900;48.890;9.190;2023-06-10T07:08:21;8.43;;;5.37;;
3769;SDS011;1900;48.890;9.190;2023-06-10T07:10:47;6.17;;;5.40;;
3769;SDS011;1900;48.890;9.190;2023-06-10T07:13:14;5.80;;;5.20;;
3769;SDS011;1900;48.890;9.190;2023-06-10T07:15:40;6.63;;;5.43;;
3769;SDS011;1900;48.890;9.190;2023-06-10T07:18:05;6.30;;;5.40;;
3769;SDS011;1900;48.890;9.190;2023-06-10T07:20:31;5.80;;;5.20;;
3769;SDS011;1900;48.890;9.190;2023-06-10T07:22:56;5.80;;;5.10;;
3769;SDS011;1900;48.890;9.190;2023-06-10T07:25:22;8.47;;;5.43;;
3769;SDS011;1900;48.890;9.190;2023-06-10T07:27:48;6.00;;;5.03;;
3769;SDS011;1900;48.890;9.190;2023-06-10T07:30:14;10.77;;;6.40;;
3769;SDS011;1900;48.890;9.190;2023-06-10T07:32:40;8.13;;;5.10;;
3769;SDS011;1900;48.890;9.190;2023-06-10T07:35:07;6.70;;;5.10;;
3769;SDS011;1900;48.890;9.190;2023-06-10T07:37:34;5.77;;;4.60;;
3769;SDS011;1900;48.890;9.190;2023-06-10T07:40:00;5.60;;;4.97;;
3769;SDS011;1900;48.890;9.190;2023-06-10T07:42:26;6.93;;;6.00;;
3769;SDS011;1900;48.890;9.190;2023-06-10T07:44:51;5.83;;;5.30;;
3769;SDS011;1900;48.890;9.190;2023-06-10T07:47:17;6.20;;;5.60;;
3769;SDS011;1900;48.890;9.190;2023-06-10T07:49:43;7.37;;;5.37;;
3769;SDS011;1900;48.890;9.190;2023-06-10T07:52:09;7.50;;;6.13;;
3769;SDS011;1900;48.890;9.190;2023-06-10T07:54:34;6.00;;;5.00;;
3769;SDS011;1900;48.890;9.190;2023-06-10T07:57:00;7.90;;;5.40;;
3769;SDS011;1900;48.890;9.190;2023-06-10T07:59:26;6.67;;;5.63;;
3769;SDS011;1900;48.890;9.190;2023-06-10T08:01:52;9.00;;;5.23;;
3769;SDS011;1900;48.890;9.190;2023-06-10T08:04:18;6.23;;;5.30;;
3769;SDS011;1900;48.890;9.190;2023-06-10T08:06:44;7.10;;;5.80;;
3769;SDS011;1900;48.890;9.190;2023-06-10T08:09:09;7.07;;;5.40;;
3769;SDS011;1900;48.890;9.190;2023-06-10T08:11:35;10.90;;;5.63;;
3769;SDS011;1900;48.890;9.190;2023-06-10T08:14:01;6.83;;;5.50;;
3769;SDS011;1900;48.890;9.190;2023-06-10T08:16:27;7.50;;;6.03;;
3769;SDS011;1900;48.890;9.190;2023-06-10T08:18:52;7.53;;;5.47;;
3769;SDS011;1900;48.890;9.190;2023-06-10T08:21:18;7.40;;;5.77;;
3769;SDS011;1900;48.890;9.190;2023-06-10T08:23:44;5.50;;;5.00;;
3769;SDS011;1900;48.890;9.190;2023-06-10T08:26:10;6.30;;;5.60;;
3769;SDS011;1900;48.890;9.190;2023-06-10T08:28:36;6.43;;;5.83;;
3769;SDS011;1900;48.890;9.190;2023-06-10T08:31:01;6.80;;;5.63;;
3769;SDS011;1900;48.890;9.190;2023-06-10T08:33:27;10.30;;;4.80;;
3769;SDS011;1900;48.890;9.190;2023-06-10T08:35:53;7.00;;;5.97;;
3769;SDS011;1900;48.890;9.190;2023-06-10T08:38:18;7.23;;;5.37;;
3769;SDS011;1900;48.890;9.190;2023-06-10T08:40:44;7.40;;;5.23;;
3769;SDS011;1900;48.890;9.190;2023-06-10T08:43:14;9.00;;;5.80;;
3769;SDS011;1900;48.890;9.190;2023-06-10T08:45:45;6.33;;;5.73;;
3769;SDS011;1900;48.890;9.190;2023-06-10T08:48:14;6.13;;;5.53;;
3769;SDS011;1900;48.890;9.190;2023-06-10T08:50:44;8.70;;;5.30;;
3769;SDS011;1900;48.890;9.190;2023-06-10T08:53:10;6.30;;;5.03;;
3769;SDS011;1900;48.890;9.190;2023-06-10T08:55:42;6.03;;;5.30;;
3769;SDS011;1900;48.890;9.190;2023-06-10T08:58:09;5.50;;;5.00;;
3769;SDS011;1900;48.890;9.190;2023-06-10T09:00:38;6.10;;;5.50;;
3769;SDS011;1900;48.890;9.190;2023-06-10T09:03:04;5.53;;;5.03;;
3769;SDS011;1900;48.890;9.190;2023-06-10T09:05:30;7.60;;;6.10;;
3769;SDS011;1900;48.890;9.190;2023-06-10T09:07:59;6.90;;;5.97;;
3769;SDS011;1900;48.890;9.190;2023-06-10T09:10:26;5.43;;;4.93;;
3769;SDS011;1900;48.890;9.190;2023-06-10T09:12:52;5.17;;;4.70;;
3769;SDS011;1900;48.890;9.190;2023-06-10T09:15:18;8.87;;;5.20;;
3769;SDS011;1900;48.890;9.190;2023-06-10T09:17:44;5.40;;;4.90;;
3769;SDS011;1900;48.890;9.190;2023-06-10T09:20:11;11.10;;;8.60;;
3769;SDS011;1900;48.890;9.190;2023-06-10T09:22:36;7.70;;;5.73;;
3769;SDS011;1900;48.890;9.190;2023-06-10T09:27:30;5.90;;;5.10;;
3769;SDS011;1900;48.890;9.190;2023-06-10T09:29:59;8.47;;;6.40;;
3769;SDS011;1900;48.890;9.190;2023-06-10T09:32:25;7.57;;;6.77;;
3769;SDS011;1900;48.890;9.190;2023-06-10T09:34:52;9.33;;;7.63;;
3769;SDS011;1900;48.890;9.190;2023-06-10T09:37:21;9.87;;;6.43;;
3769;SDS011;1900;48.890;9.190;2023-06-10T09:40:03;8.43;;;6.33;;
3769;SDS011;1900;48.890;9.190;2023-06-10T09:42:33;6.60;;;5.40;;
3769;SDS011;1900;48.890;9.190;2023-06-10T09:45:00;7.60;;;6.03;;
3769;SDS011;1900;48.890;9.190;2023-06-10T09:47:30;6.93;;;5.60;;
3769;SDS011;1900;48.890;9.190;2023-06-10T09:49:56;6.53;;;5.13;;
3769;SDS011;1900;48.890;9.190;2023-06-10T09:52:22;10.33;;;4.83;;
3769;SDS011;1900;48.890;9.190;2023-06-10T09:54:52;5.30;;;4.80;;
3769;SDS011;1900;48.890;9.190;2023-06-10T09:57:19;6.30;;;5.70;;
3769;SDS011;1900;48.890;9.190;2023-06-10T09:59:47;5.60;;;5.10;;
3769;SDS011;1900;48.890;9.190;2023-06-10T10:02:13;5.63;;;4.53;;
3769;SDS011;1900;48.890;9.190;2023-06-10T10:04:42;5.20;;;4.70;;
3769;SDS011;1900;48.890;9.190;2023-06-10T10:07:09;5.57;;;5.07;;
3769;SDS011;1900;48.890;9.190;2023-06-10T10:09:36;5.27;;;4.77;;
3769;SDS011;1900;48.890;9.190;2023-06-10T10:12:02;5.23;;;4.80;;
3769;SDS011;1900;48.890;9.190;2023-06-10T10:14:37;5.50;;;4.73;;
3769;SDS011;1900;48.890;9.190;2023-06-10T10:17:07;4.73;;;4.30;;
3769;SDS011;1900;48.890;9.190;2023-06-10T10:19:50;4.47;;;4.07;;
3769;SDS011;1900;48.890;9.190;2023-06-10T10:22:25;4.80;;;4.03;;
3769;SDS011;1900;48.890;9.190;2023-06-10T10:24:58;5.67;;;4.97;;
3769;SDS011;1900;48.890;9.190;2023-06-10T10:27:28;5.93;;;4.33;;
3769;SDS011;1900;48.890;9.190;2023-06-10T10:29:58;5.60;;;4.50;;
3769;SDS011;1900;48.890;9.190;2023-06-10T10:32:42;4.50;;;4.10;;
3769;SDS011;1900;48.890;9.190;2023-06-10T10:35:21;5.20;;;4.70;;
3769;SDS011;1900;48.890;9.190;2023-06-10T10:37:48;5.13;;;4.17;;
3769;SDS011;1900;48.890;9.190;2023-06-10T10:40:17;4.80;;;4.20;;
3769;SDS011;1900;48.890;9.190;2023-06-10T10:42:44;5.20;;;4.63;;
3769;SDS011;1900;48.890;9.190;2023-06-10T10:45:12;5.23;;;4.70;;
3769;SDS011;1900;48.890;9.190;2023-06-10T10:47:37;5.37;;;4.90;;
3769;SDS011;1900;48.890;9.190;2023-06-10T10:50:14;7.70;;;5.03;;
3769;SDS011;1900;48.890;9.190;2023-06-10T10:55:26;6.00;;;4.10;;
3769;SDS011;1900;48.890;9.190;2023-06-10T11:03:17;6.10;;;4.53;;
3769;SDS011;1900;48.890;9.190;2023-06-10T11:08:13;4.70;;;4.30;;
3769;SDS011;1900;48.890;9.190;2023-06-10T11:10:54;5.13;;;4.47;;
3769;SDS011;1900;48.890;9.190;2023-06-10T11:13:20;5.20;;;4.60;;
3769;SDS011;1900;48.890;9.190;2023-06-10T11:15:48;4.77;;;4.37;;
3769;SDS011;1900;48.890;9.190;2023-06-10T11:18:19;4.50;;;3.73;;
3769;SDS011;1900;48.890;9.190;2023-06-10T11:20:56;4.37;;;3.97;;
3769;SDS011;1900;48.890;9.190;2023-06-10T11:31:22;6.23;;;4.77;;
3769;SDS011;1900;48.890;9.190;2023-06-10T11:36:24;7.90;;;4.30;;
3769;SDS011;1900;48.890;9.190;2023-06-10T11:38:53;4.63;;;4.23;;
3769;SDS011;1900;48.890;9.190;2023-06-10T11:41:21;4.73;;;4.33;;
3769;SDS011;1900;48.890;9.190;2023-06-10T11:43:52;4.13;;;3.67;;
3769;SDS011;1900;48.890;9.190;2023-06-10T11:46:21;4.00;;;3.60;;
3769;SDS011;1900;48.890;9.190;2023-06-10T11:48:51;7.70;;;4.60;;
3769;SDS011;1900;48.890;9.190;2023-06-10T11:51:18;9.83;;;4.30;;
3769;SDS011;1900;48.890;9.190;2023-06-10T11:53:44;5.17;;;4.20;;
3769;SDS011;1900;48.890;9.190;2023-06-10T11:56:11;4.53;;;4.13;;
3769;SDS011;1900;48.890;9.190;2023-06-10T11:58:37;5.90;;;4.70;;
3769;SDS011;1900;48.890;9.190;2023-06-10T12:01:07;4.30;;;3.90;;
3769;SDS011;1900;48.890;9.190;2023-06-10T12:03:36;4.60;;;3.87;;
3769;SDS011;1900;48.890;9.190;2023-06-10T12:06:06;4.23;;;3.80;;
3769;SDS011;1900;48.890;9.190;2023-06-10T12:08:32;6.00;;;4.13;;
3769;SDS011;1900;48.890;9.190;2023-06-10T12:10:58;5.10;;;4.10;;
3769;SDS011;1900;48.890;9.190;2023-06-10T12:13:27;3.70;;;3.40;;
3769;SDS011;1900;48.890;9.190;2023-06-10T12:15:53;3.73;;;3.43;;
3769;SDS011;1900;48.890;9.190;2023-06-10T12:18:20;4.60;;;3.80;;
3769;SDS011;1900;48.890;9.190;2023-06-10T12:20:47;5.10;;;3.40;;
3769;SDS011;1900;48.890;9.190;2023-06-10T12:23:14;3.95;;;3.53;;
3769;SDS011;1900;48.890;9.190;2023-06-10T12:25:51;4.22;;;3.75;;
3769;SDS011;1900;48.890;9.190;2023-06-10T12:28:20;4.88;;;3.50;;
3769;SDS011;1900;48.890;9.190;2023-06-10T12:30:46;4.90;;;3.95;;
3769;SDS011;1900;48.890;9.190;2023-06-10T12:33:19;4.13;;;3.70;;
3769;SDS011;1900;48.890;9.190;2023-06-10T12:35:52;3.95;;;3.50;;
3769;SDS011;1900;48.890;9.190;2023-06-10T12:38:24;4.47;;;3.73;;
3769;SDS011;1900;48.890;9.190;2023-06-10T12:40:54;5.93;;;3.37;;
3769;SDS011;1900;48.890;9.190;2023-06-10T12:43:26;9.95;;;3.33;;
3769;SDS011;1900;48.890;9.190;2023-06-10T12:45:53;3.50;;;3.20;;
3769;SDS011;1900;48.890;9.190;2023-06-10T12:48:20;3.83;;;3.43;;
3769;SDS011;1900;48.890;9.190;2023-06-10T12:50:54;3.45;;;3.15;;
3769;SDS011;1900;48.890;9.190;2023-06-10T12:53:20;3.50;;;3.20;;
3769;SDS011;1900;48.890;9.190;2023-06-10T12:55:48;4.45;;;3.50;;
3769;SDS011;1900;48.890;9.190;2023-06-10T12:58:14;3.43;;;3.13;;
3769;SDS011;1900;48.890;9.190;2023-06-10T13:00:40;3.70;;;3.40;;
3769;SDS011;1900;48.890;9.190;2023-06-10T13:03:07;3.65;;;3.35;;
3769;SDS011;1900;48.890;9.190;2023-06-10T13:05:34;3.22;;;2.90;;
3769;SDS011;1900;48.890;9.190;2023-06-10T13:08:03;4.32;;;3.45;;
3769;SDS011;1900;48.890;9.190;2023-06-10T13:10:35;3.17;;;2.97;;
3769;SDS011;1900;48.890;9.190;2023-06-10T13:13:02;3.40;;;3.10;;
3769;SDS011;1900;48.890;9.190;2023-06-10T13:15:30;3.28;;;3.03;;
3769;SDS011;1900;48.890;9.190;2023-06-10T13:17:57;3.17;;;2.80;;
3769;SDS011;1900;48.890;9.190;2023-06-10T13:20:23;3.90;;;3.20;;
3769;SDS011;1900;48.890;9.190;2023-06-10T13:22:49;3.65;;;2.63;;
3769;SDS011;1900;48.890;9.190;2023-06-10T13:25:15;3.38;;;3.08;;
3769;SDS011;1900;48.890;9.190;2023-06-10T13:27:41;2.75;;;2.55;;
3769;SDS011;1900;48.890;9.190;2023-06-10T13:30:07;3.28;;;3.00;;
3769;SDS011;1900;48.890;9.190;2023-06-10T13:32:34;6.72;;;3.08;;
3769;SDS011;1900;48.890;9.190;2023-06-10T13:35:00;3.33;;;3.03;;
3769;SDS011;1900;48.890;9.190;2023-06-10T13:37:26;3.75;;;3.45;;
3769;SDS011;1900;48.890;9.190;2023-06-10T13:39:52;3.17;;;2.88;;
3769;SDS011;1900;48.890;9.190;2023-06-10T13:42:18;3.28;;;2.97;;
3769;SDS011;1900;48.890;9.190;2023-06-10T13:44:45;4.18;;;3.03;;
3769;SDS011;1900;48.890;9.190;2023-06-10T13:47:12;7.03;;;3.40;;
3769;SDS011;1900;48.890;9.190;2023-06-10T13:49:38;4.70;;;3.20;;
3769;SDS011;1900;48.890;9.190;2023-06-10T13:52:05;3.72;;;3.30;;
3769;SDS011;1900;48.890;9.190;2023-06-10T13:54:31;4.00;;;3.45;;
3769;SDS011;1900;48.890;9.190;2023-06-10T13:56:57;4.30;;;2.85;;
3769;SDS011;1900;48.890;9.190;2023-06-10T13:59:24;3.67;;;3.35;;
3769;SDS011;1900;48.890;9.190;2023-06-10T14:01:49;3.40;;;3.10;;
3769;SDS011;1900;48.890;9.190;2023-06-10T14:04:15;2.95;;;2.70;;
3769;SDS011;1900;48.890;9.190;2023-06-10T14:06:41;3.88;;;3.38;;
3769;SDS011;1900;48.890;9.190;2023-06-10T14:09:06;3.55;;;3.25;;
3769;SDS011;1900;48.890;9.190;2023-06-10T14:11:32;4.40;;;3.50;;
3769;SDS011;1900;48.890;9.190;2023-06-10T14:13:58;5.13;;;3.28;;
3769;SDS011;1900;48.890;9.190;2023-06-10T14:16:24;3.95;;;3.65;;
3769;SDS011;1900;48.890;9.190;2023-06-10T14:18:49;4.05;;;3.63;;
3769;SDS011;1900;48.890;9.190;2023-06-10T14:21:18;3.80;;;3.47;;
3769;SDS011;1900;48.890;9.190;2023-06-10T14:23:44;4.10;;;3.70;;
3769;SDS011;1900;48.890;9.190;2023-06-10T14:26:10;4.00;;;3.20;;
3769;SDS011;1900;48.890;9.190;2023-06-10T14:28:37;5.15;;;3.28;;
3769;SDS011;1900;48.890;9.190;2023-06-10T14:31:02;3.70;;;3.38;;
3769;SDS011;1900;48.890;9.190;2023-06-10T14:33:28;3.75;;;3.33;;
3769;SDS011;1900;48.890;9.190;2023-06-10T14:35:56;3.65;;;3.15;;
3769;SDS011;1900;48.890;9.190;2023-06-10T14:38:21;7.05;;;3.28;;
3769;SDS011;1900;48.890;9.190;2023-06-10T14:40:47;3.50;;;3.20;;
3769;SDS011;1900;48.890;9.190;2023-06-10T14:43:13;4.43;;;3.40;;
3769;SDS011;1900;48.890;9.190;2023-06-10T14:45:39;3.38;;;3.10;;
3769;SDS011;1900;48.890;9.190;2023-06-10T14:48:06;3.53;;;2.95;;
3769;SDS011;1900;48.890;9.190;2023-06-10T14:50:32;3.50;;;3.20;;
3769;SDS011;1900;48.890;9.190;2023-06-10T14:53:02;3.83;;;3.42;;
3769;SDS011;1900;48.890;9.190;2023-06-10T14:55:28;3.47;;;3.13;;
3769;SDS011;1900;48.890;9.190;2023-06-10T14:57:53;3.53;;;3.22;;
3769;SDS011;1900;48.890;9.190;2023-06-10T15:00:20;3.30;;;3.10;;
3769;SDS011;1900;48.890;9.190;2023-06-10T15:02:48;4.95;;;3.30;;
3769;SDS011;1900;48.890;9.190;2023-06-10T15:05:14;6.90;;;3.63;;
3769;SDS011;1900;48.890;9.190;2023-06-10T15:07:43;4.82;;;4.35;;
3769;SDS011;1900;48.890;9.190;2023-06-10T15:10:09;3.40;;;3.10;;
3769;SDS011;1900;48.890;9.190;2023-06-10T15:12:35;3.75;;;3.45;;
3769;SDS011;1900;48.890;9.190;2023-06-10T15:15:01;5.05;;;3.40;;
3769;SDS011;1900;48.890;9.190;2023-06-10T15:17:27;3.50;;;3.20;;
3769;SDS011;1900;48.890;9.190;2023-06-10T15:19:54;5.18;;;3.65;;
3769;SDS011;1900;48.890;9.190;2023-06-10T15:22:20;6.28;;;3.58;;
3769;SDS011;1900;48.890;9.190;2023-06-10T15:24:45;4.10;;;3.03;;
3769;SDS011;1900;48.890;9.190;2023-06-10T15:27:11;4.75;;;3.60;;
3769;SDS011;1900;48.890;9.190;2023-06-10T15:29:37;3.47;;;3.17;;
3769;SDS011;1900;48.890;9.190;2023-06-10T15:32:02;3.67;;;3.38;;
3769;SDS011;1900;48.890;9.190;2023-06-10T15:34:28;3.60;;;3.30;;
3769;SDS011;1900;48.890;9.190;2023-06-10T15:36:54;3.80;;;3.45;;
3769;SDS011;1900;48.890;9.190;2023-06-10T15:39:20;3.13;;;2.65;;
3769;SDS011;1900;48.890;9.190;2023-06-10T15:41:45;3.40;;;3.10;;
3769;SDS011;1900;48.890;9.190;2023-06-10T15:44:11;3.25;;;3.05;;
3769;SDS011;1900;48.890;9.190;2023-06-10T15:46:37;3.78;;;3.15;;
3769;SDS011;1900;48.890;9.190;2023-06-10T15:49:03;4.05;;;3.65;;